Dauntless Aviation
Greetings, Guest! To participate, [sign up for a free account] or [log in]
Airports Europe United Kingdom
EGLC
LCY

London City

London, UNITED KINGDOM

Airport Info
Edit

Location

Latitude / Longitude: 51°30'18"N / 0°3'12"E
  51°30.3'N / 0°3.21'E
  51.5050 / 0.0535

Nearby radio navigation aids

LCY CITY NDB on field.

Runway Information

Runway 10 /28

Dimensions: 4948 x 98 ft.
Surface: ASP
 
Runway 10
Runway 28
Latitude: 51.505528 51.504922
Longitude: 0.045753 0.064953
Elevation: 16 ft. 16 ft.
Runway true heading: 91.1 271.1
 

Instrument Procedures

  Control Zone and Control Area Chart
  Aircraft Parking/Docking Chart
  Aerodrome Chart

STARs (Standard Terminal Arrivals)

  STAR via SPEAR (Northwest)
  STAR via ALKIN (South)
  STAR via SPEAR (East)
  STAR via SPEAR (West)
  STAR via SPEAR (Alternate Holding at LOGAN and ALKIN)

IAPs (Instrument Approach Procedures)

  LOC/DME/NDB (L) Rwy 27 (Aircraft CAT A/B/C)
  Visual Approach Profile Rwy 27
  ILS (5.5°GP) /DME/NDB (L) Rwy 27 (Aircraft CAT A/B/C)
  Visual Approach Profile Rwy 09
  LOC/DME/NDB (L) Rwy 09
  ATC Surveillance Minimum Altitude Chart
  ILS (5.5°GP) /DME/NDB (L) Rwy 09 (Aircraft CAT A/B/C)

Departure Procedures

  SID DOVER/LYDD
  SID CLACTON
  SID SOUTHAMPTON
  SID BROOKMANS PARK/COMPTON
Satellite photo at:
Airport distance calculator
From:
Weather Reports

METAR

EGLC

EGLC 200550Z 34005KT 260V010 0900 R09/P1500 R27/P1500 FG SCT001 BKN003 17/16 Q1014
EGLL
18.9nm SW
EGLL 200520Z 04005KT 3000 TS BR FEW003 SCT004CB BKN005 17/16 Q1014 TEMPO BKN004
EGSS
23.5nm N
EGSS 200520Z 36004KT 1100 R04/P1500 BR VCTS OVC002CB 15/15 Q1014
EGKK
23.8nm S
EGKK 200520Z VRB03KT 0500 R08R/0650 FG BKN001 16/16 Q1014
EGMC
24.4nm NE
EGMC 200520Z 05003KT 0900 R06/0800 R24/1200 FG VV/// 17/16 Q1013
EGGW
26.8nm NW
EGGW 200550Z 03004KT 360V060 0900 R08/P1500 FG OVC001CB 15/15 Q1015

TAF

EGLC
TAF AMD EGLC 200331Z 2003/2012 02005KT 2000 BR BKN004 BECMG 2003/2006 0300 FG VV/// PROB40 TEMPO 2003/2012 4000 +SHRA BECMG 2006/2009 7000 NSW BKN010 BECMG 2009/2012 SCT020
EGWU
17.8nm W
TAF EGWU 191621Z 1918/2012 02005KT 9999 FEW030 TEMPO 1918/2012 7000 SHRA SCT020 PROB40 TEMPO 1918/1923 2500 +TSRA SCT018CB BECMG 1920/1923 6000 HZ BECMG 1922/2001 3000 BR BKN004 BECMG 2008/2011 BKN007
EGLL
18.9nm SW
TAF AMD EGLL 200430Z 2004/2106 VRB03KT 3000 HZ SCT003 BKN006 TEMPO 2004/2006 1200 BR SCT002 BKN004 PROB30 TEMPO 2004/2007 5000 +SHRA TSRA SCT003 SCT006 BECMG 2007/2010 6000 NSW SCT006 BKN012 PROB30 TEMPO 2007/2014 +SHRA BECMG 2009/2012 01010KT BECMG 2010/2012 9999 SCT020 TEMPO 2020/2024 BKN012
EGSS
23.5nm N
TAF AMD EGSS 200418Z 2004/2106 36007KT 0200 FG OVC001 PROB40 TEMPO 2004/2007 1200 +SHRA TS BKN004CB PROB40 TEMPO 2007/2018 2000 +SHRA BKN004 BECMG 2009/2012 8000 NSW BKN010 BECMG 2012/2015 9999 SCT020 TEMPO 2018/2102 7000 BKN008
EGKK
23.8nm S
TAF AMD EGKK 200341Z 2003/2106 VRB05KT 0100 FG BKN001 PROB40 2003/2008 3000 BR BKN005 PROB30 TEMPO 2003/2012 +SHRA BECMG 2009/2012 9999 NSW SCT020 PROB30 TEMPO 2012/2018 4500 +SHRA BKN012 BECMG 2018/2021 02010KT 7000 -RA BKN012 BECMG 2102/2105 CAVOK
EGMC
24.4nm NE
TAF EGMC 200159Z 2003/2012 05004KT 0300 FG VV/// PROB40 TEMPO 2003/2012 3000 +SHRA BR BECMG 2006/2009 BKN008 BECMG 2009/2012 8000 NSW BKN012
Safelog

 

Dauntless Aviation

© 2007-2014 Dauntless Aviation, all rights reserved
Information provided via PilotNav comes from a variety of official and unofficial data sources. As errors are possible, do not use PilotNav for primary flight planning purposes. Verify any information that you receive via PilotNav with current and canonical charts and other official documents. The material in this database is subject to database copyrights held by Dauntless Aviation and may not be copied without the express permission of Dauntless Aviation - licenses for use of part of all of this data are available for purchase; enquire via the Dauntless Aviation helpdesk. A number of mechanisms and markers exist in the database to protect against and identify infringement / copyright. Automated queries against this website are stictly prohibited, and all activity is logged and analyzed.